createdAt,value
2023-01-20T00:01:01.776Z,74.15
2023-01-20T00:03:34.959Z,65.87
2023-01-20T00:06:08.028Z,68.10
2023-01-20T00:08:41.670Z,71.20
2023-01-20T00:11:15.197Z,64.90
2023-01-20T00:13:48.033Z,66.97
2023-01-20T00:16:20.985Z,60.43
2023-01-20T00:18:54.771Z,70.60
2023-01-20T00:21:27.578Z,55.75
2023-01-20T00:24:00.914Z,73.80
2023-01-20T00:26:33.749Z,66.53
2023-01-20T00:29:06.742Z,54.63
2023-01-20T00:31:40.032Z,66.70
2023-01-20T00:34:13.225Z,66.37
2023-01-20T00:36:46.037Z,65.83
2023-01-20T00:39:18.909Z,66.28
2023-01-20T00:41:51.923Z,63.75
2023-01-20T00:44:24.832Z,62.67
2023-01-20T00:46:57.735Z,68.62
2023-01-20T00:49:30.851Z,63.90
2023-01-20T00:52:03.809Z,61.23
2023-01-20T00:54:36.694Z,67.87
2023-01-20T00:57:09.534Z,64.42
2023-01-20T00:59:42.313Z,60.05
2023-01-20T01:02:15.227Z,63.60
2023-01-20T01:04:53.258Z,63.68
2023-01-20T01:07:26.209Z,64.50
2023-01-20T01:09:59.063Z,62.03
2023-01-20T01:12:31.991Z,65.97
2023-01-20T01:15:05.654Z,58.25
2023-01-20T01:17:38.845Z,64.25
2023-01-20T01:20:13.948Z,66.60
2023-01-20T01:22:46.895Z,68.22
2023-01-20T01:25:20.573Z,72.15
2023-01-20T01:27:53.361Z,60.00
2023-01-20T01:30:26.403Z,63.15
2023-01-20T01:32:59.243Z,60.55
2023-01-20T01:35:32.259Z,63.15
2023-01-20T01:38:05.048Z,62.78
2023-01-20T01:40:37.986Z,67.35
2023-01-20T01:43:21.309Z,64.85
2023-01-20T01:45:54.385Z,62.67
2023-01-20T01:48:43.540Z,68.30
2023-01-20T01:51:23.608Z,60.60
2023-01-20T01:54:00.359Z,58.20
2023-01-20T01:56:33.620Z,67.80
2023-01-20T01:59:07.423Z,68.87
2023-01-20T02:01:44.086Z,65.52
2023-01-20T02:04:22.122Z,68.83
2023-01-20T02:07:00.800Z,63.85
2023-01-20T02:09:34.048Z,65.92
2023-01-20T02:12:10.701Z,66.93
2023-01-20T02:14:54.049Z,66.37
2023-01-20T02:17:58.919Z,61.48
2023-01-20T02:21:22.217Z,66.55
2023-01-20T02:24:22.448Z,77.80
2023-01-20T02:27:22.709Z,63.10
2023-01-20T02:30:16.859Z,71.30
2023-01-20T02:33:19.819Z,68.17
2023-01-20T02:35:59.566Z,71.90
2023-01-20T02:38:58.271Z,68.35
2023-01-20T02:42:10.762Z,64.40
2023-01-20T02:45:03.842Z,78.50
2023-01-20T02:47:51.691Z,68.75
2023-01-20T02:50:38.319Z,69.40
2023-01-20T02:53:13.953Z,78.60
2023-01-20T02:55:51.123Z,73.20
2023-01-20T02:58:34.887Z,73.20
2023-01-20T03:01:18.304Z,67.42
2023-01-20T03:03:53.505Z,71.62
2023-01-20T03:06:30.936Z,74.10
2023-01-20T03:09:10.827Z,71.07
2023-01-20T03:11:48.145Z,78.45
2023-01-20T03:14:21.747Z,71.35
2023-01-20T03:16:54.711Z,67.50
2023-01-20T03:19:28.295Z,66.57
2023-01-20T03:22:01.200Z,66.97
2023-01-20T03:24:35.663Z,69.97
2023-01-20T03:27:09.399Z,70.08
2023-01-20T03:29:42.337Z,74.37
2023-01-20T03:32:15.952Z,72.65
2023-01-20T03:34:49.080Z,69.45
2023-01-20T03:37:22.020Z,69.05
2023-01-20T03:39:54.986Z,70.75
2023-01-20T03:42:32.232Z,67.60
2023-01-20T03:45:18.767Z,65.50
2023-01-20T03:48:07.155Z,71.95
2023-01-20T03:50:50.374Z,67.80
2023-01-20T03:53:40.897Z,74.70
2023-01-20T03:56:33.515Z,69.65
2023-01-20T03:59:07.815Z,78.92
2023-01-20T04:04:19.746Z,74.92
2023-01-20T04:06:53.496Z,67.08
2023-01-20T04:09:30.315Z,73.42
2023-01-20T04:12:03.443Z,71.70
2023-01-20T04:14:38.069Z,62.25
2023-01-20T04:17:10.950Z,65.55
2023-01-20T04:19:44.644Z,66.80
2023-01-20T04:22:28.655Z,71.05
2023-01-20T04:25:11.866Z,63.48
2023-01-20T04:27:45.335Z,76.85
2023-01-20T04:30:18.750Z,75.60
2023-01-20T04:32:51.544Z,77.50
2023-01-20T04:35:25.162Z,81.00
2023-01-20T04:37:58.257Z,78.22
2023-01-20T04:40:31.060Z,84.42
2023-01-20T04:43:04.188Z,81.57
2023-01-20T04:45:38.169Z,75.62
2023-01-20T04:48:12.162Z,78.95
2023-01-20T04:50:47.174Z,82.53
2023-01-20T04:53:20.508Z,91.65
2023-01-20T04:55:53.426Z,83.15
2023-01-20T04:58:26.367Z,72.50
2023-01-20T05:01:00.995Z,69.42
2023-01-20T05:03:34.380Z,75.17
2023-01-20T05:06:07.510Z,70.60
2023-01-20T05:08:40.423Z,76.15
2023-01-20T05:11:13.207Z,65.55
2023-01-20T05:13:46.216Z,71.05
2023-01-20T05:16:23.618Z,72.37
2023-01-20T05:18:56.644Z,77.85
2023-01-20T05:21:29.539Z,76.57
2023-01-20T05:24:02.297Z,76.95
2023-01-20T05:26:35.230Z,76.92
2023-01-20T05:29:09.411Z,70.95
2023-01-20T05:34:16.708Z,67.40
2023-01-20T05:36:54.658Z,66.10
2023-01-20T05:39:27.537Z,74.62
2023-01-20T05:42:00.786Z,66.00
2023-01-20T05:44:33.636Z,62.73
2023-01-20T05:47:06.452Z,91.28
2023-01-20T05:49:39.398Z,83.95
2023-01-20T05:52:12.638Z,80.17
2023-01-20T05:54:45.387Z,74.45
2023-01-20T05:57:18.552Z,63.25
2023-01-20T05:59:52.379Z,60.67
2023-01-20T06:02:25.154Z,62.95
2023-01-20T06:04:58.022Z,69.97
2023-01-20T06:07:32.105Z,59.30
2023-01-20T06:12:36.990Z,70.32
2023-01-20T06:15:10.809Z,70.32
2023-01-20T06:17:43.713Z,68.22
2023-01-20T06:20:16.683Z,63.52
2023-01-20T06:22:49.668Z,65.67
2023-01-20T06:25:22.588Z,59.03
2023-01-20T06:27:55.309Z,65.42
2023-01-20T06:30:28.054Z,70.83
2023-01-20T06:33:00.952Z,65.00
2023-01-20T06:35:33.863Z,67.95
2023-01-20T06:38:06.673Z,56.42
2023-01-20T06:40:39.489Z,54.25
2023-01-20T06:43:12.337Z,57.70
2023-01-20T06:45:45.086Z,52.53
2023-01-20T06:48:17.953Z,51.15
2023-01-20T06:50:50.713Z,58.23
2023-01-20T06:53:23.674Z,50.90
2023-01-20T06:55:58.721Z,55.88
2023-01-20T06:58:33.728Z,62.33
2023-01-20T07:01:11.099Z,56.85
2023-01-20T07:03:44.956Z,48.73
2023-01-20T07:06:35.960Z,52.13
2023-01-20T07:09:11.895Z,56.33
2023-01-20T07:11:44.597Z,61.02
2023-01-20T07:14:17.576Z,64.03
2023-01-20T07:16:50.586Z,61.15
2023-01-20T07:19:23.461Z,57.15
2023-01-20T07:21:56.449Z,62.85
2023-01-20T07:24:29.571Z,54.35
2023-01-20T07:27:02.519Z,51.75
2023-01-20T07:29:35.352Z,51.77
2023-01-20T07:32:08.149Z,52.05
2023-01-20T07:34:40.869Z,46.55
2023-01-20T07:37:13.616Z,48.33
2023-01-20T07:39:46.437Z,45.38
2023-01-20T07:42:19.232Z,39.83
2023-01-20T07:44:52.757Z,43.68
2023-01-20T07:47:25.511Z,41.23
2023-01-20T07:49:58.343Z,38.85
2023-01-20T07:52:31.147Z,46.58
2023-01-20T07:55:03.920Z,43.55
2023-01-20T07:57:37.083Z,45.63
2023-01-20T08:00:11.630Z,50.00
2023-01-20T08:02:44.645Z,46.77
2023-01-20T08:05:17.786Z,46.05
2023-01-20T08:07:54.519Z,40.83
2023-01-20T08:10:29.264Z,43.45
2023-01-20T08:13:02.112Z,39.45
2023-01-20T08:15:35.361Z,40.47
2023-01-20T08:18:08.273Z,41.45
2023-01-20T08:20:42.789Z,38.53
2023-01-20T08:23:16.087Z,39.78
2023-01-20T08:25:49.101Z,43.20
2023-01-20T08:28:23.332Z,51.40
2023-01-20T08:30:57.400Z,51.08
2023-01-20T08:33:30.172Z,45.60
2023-01-20T08:36:14.201Z,50.73
2023-01-20T08:38:48.271Z,48.95
2023-01-20T08:41:38.785Z,46.98
2023-01-20T08:46:50.646Z,43.60
2023-01-20T08:49:23.833Z,53.15
2023-01-20T08:51:57.206Z,44.73
2023-01-20T08:54:31.837Z,45.67
2023-01-20T08:57:04.646Z,44.27
2023-01-20T08:59:38.612Z,42.15
2023-01-20T09:02:12.676Z,49.35
2023-01-20T09:04:53.508Z,49.70
2023-01-20T09:10:02.019Z,46.65
2023-01-20T09:12:35.176Z,42.20
2023-01-20T09:15:09.418Z,50.88
2023-01-20T09:17:42.818Z,57.25
2023-01-20T09:20:15.645Z,47.43
2023-01-20T09:22:48.650Z,50.40
2023-01-20T09:25:21.573Z,52.23
2023-01-20T09:27:54.686Z,46.05
2023-01-20T09:30:27.483Z,49.65
2023-01-20T09:33:00.423Z,54.08
2023-01-20T09:35:33.187Z,48.95
2023-01-20T09:38:24.195Z,45.63
2023-01-20T09:41:36.575Z,47.00
2023-01-20T09:44:40.459Z,53.13
2023-01-20T09:47:35.661Z,56.60
2023-01-20T09:50:49.164Z,60.73
2023-01-20T09:53:38.490Z,77.20
2023-01-20T09:56:19.196Z,85.22
2023-01-20T09:59:14.257Z,77.50
2023-01-20T10:02:01.900Z,84.50
2023-01-20T10:04:44.925Z,84.37
2023-01-20T10:07:37.662Z,71.70
2023-01-20T10:10:30.626Z,77.85
2023-01-20T10:13:11.508Z,93.03
2023-01-20T10:15:49.015Z,96.78
2023-01-20T10:18:49.984Z,89.75
2023-01-20T10:21:43.919Z,85.25
2023-01-20T10:24:22.402Z,96.97
2023-01-20T10:27:05.438Z,77.27
2023-01-20T10:29:42.678Z,88.85
2023-01-20T10:32:30.737Z,81.55
2023-01-20T10:35:10.922Z,74.77
2023-01-20T10:37:44.368Z,75.10
2023-01-20T10:40:22.525Z,69.00
2023-01-20T10:43:01.478Z,65.65
2023-01-20T10:45:44.673Z,67.20
2023-01-20T10:48:55.938Z,78.12
2023-01-20T10:51:55.191Z,72.45
2023-01-20T10:54:44.969Z,70.87
2023-01-20T10:57:19.892Z,79.75
2023-01-20T11:00:00.469Z,68.57
2023-01-20T11:02:38.155Z,61.28
2023-01-20T11:05:23.559Z,69.40
2023-01-20T11:07:57.414Z,74.05
2023-01-20T11:10:33.784Z,74.42
2023-01-20T11:13:06.798Z,60.75
2023-01-20T11:15:45.079Z,60.65
2023-01-20T11:18:22.338Z,59.88
2023-01-20T11:21:00.120Z,62.30
2023-01-20T11:23:58.504Z,65.85
2023-01-20T11:26:41.751Z,69.87
2023-01-20T11:29:19.506Z,56.37
2023-01-20T11:31:59.902Z,60.23
2023-01-20T11:34:36.491Z,59.70
2023-01-20T11:37:28.096Z,63.68
2023-01-20T11:40:20.519Z,67.20
2023-01-20T11:42:55.797Z,74.90
2023-01-20T11:45:37.746Z,70.40
2023-01-20T11:48:21.710Z,60.08
2023-01-20T11:50:59.134Z,63.10
2023-01-20T11:53:34.544Z,63.98
2023-01-20T11:56:20.963Z,67.10
2023-01-20T11:59:02.276Z,59.08
2023-01-20T12:02:02.737Z,55.12
2023-01-20T12:04:58.374Z,60.45
2023-01-20T12:07:38.766Z,66.82
2023-01-20T12:10:27.196Z,60.17
2023-01-20T12:13:15.640Z,69.22
2023-01-20T12:15:53.454Z,57.65
2023-01-20T12:18:35.862Z,58.48
2023-01-20T12:21:18.235Z,49.58
2023-01-20T12:24:04.866Z,52.25
2023-01-20T12:26:38.283Z,63.70
2023-01-20T12:29:15.811Z,63.05
2023-01-20T12:31:49.744Z,57.17
2023-01-20T12:34:31.718Z,59.10
2023-01-20T12:37:17.228Z,49.80
2023-01-20T12:40:10.959Z,60.67
2023-01-20T12:43:23.301Z,63.23
2023-01-20T12:46:18.680Z,61.65
2023-01-20T12:49:14.241Z,61.63
2023-01-20T12:52:18.959Z,54.10
2023-01-20T12:55:19.373Z,52.10
2023-01-20T12:57:57.423Z,60.58
2023-01-20T13:00:55.002Z,62.30
2023-01-20T13:03:56.691Z,64.42
2023-01-20T13:07:21.394Z,56.70
2023-01-20T13:10:19.768Z,57.53
2023-01-20T13:13:13.536Z,51.23
2023-01-20T13:15:53.771Z,55.88
2023-01-20T13:18:36.937Z,60.88
2023-01-20T13:21:18.007Z,63.10
2023-01-20T13:23:52.135Z,51.95
2023-01-20T13:26:27.492Z,63.98
2023-01-20T13:29:02.703Z,66.67
2023-01-20T13:31:44.505Z,64.60
2023-01-20T13:34:31.486Z,66.17
2023-01-20T13:37:21.611Z,70.97
2023-01-20T13:39:55.862Z,58.85
2023-01-20T13:42:45.656Z,57.13
2023-01-20T13:45:23.873Z,51.90
2023-01-20T13:48:04.036Z,61.33
2023-01-20T13:50:46.519Z,57.40
2023-01-20T13:53:25.870Z,54.23
2023-01-20T13:56:02.723Z,54.65
2023-01-20T13:58:36.678Z,63.65
2023-01-20T14:01:13.473Z,52.35
2023-01-20T14:03:46.241Z,55.43
2023-01-20T14:06:23.588Z,54.30
2023-01-20T14:08:56.495Z,48.40
2023-01-20T14:11:31.557Z,44.08
2023-01-20T14:14:09.463Z,64.55
2023-01-20T14:16:44.733Z,52.43
2023-01-20T14:19:33.344Z,45.65
2023-01-20T14:22:28.534Z,45.48
2023-01-20T14:25:02.119Z,38.58
2023-01-20T14:27:37.939Z,40.25
2023-01-20T14:30:27.069Z,38.13
2023-01-20T14:33:00.717Z,33.75
2023-01-20T14:35:35.821Z,45.50
2023-01-20T14:38:11.753Z,43.13
2023-01-20T14:40:44.601Z,38.73
2023-01-20T14:43:27.522Z,47.48
2023-01-20T14:46:00.687Z,40.03
2023-01-20T14:48:35.195Z,42.03
2023-01-20T14:51:08.307Z,38.90
2023-01-20T14:53:41.785Z,39.80
2023-01-20T14:58:55.051Z,38.55
2023-01-20T15:01:28.692Z,45.08
2023-01-20T15:04:02.861Z,45.85
2023-01-20T15:06:35.963Z,43.65
2023-01-20T15:09:27.840Z,50.40
2023-01-20T15:12:39.959Z,45.12
2023-01-20T15:15:26.238Z,38.67
2023-01-20T15:18:23.533Z,48.55
2023-01-20T15:21:15.631Z,52.70
2023-01-20T15:23:39.926Z,51.90
2023-01-20T15:26:26.162Z,45.63
2023-01-20T15:29:00.454Z,42.73
2023-01-20T15:31:33.694Z,40.73
2023-01-20T15:34:07.083Z,38.70
2023-01-20T15:36:43.260Z,42.03
2023-01-20T15:39:18.611Z,39.60
2023-01-20T15:41:54.867Z,34.08
2023-01-20T15:44:28.392Z,46.28
2023-01-20T15:47:01.195Z,40.90
2023-01-20T15:49:34.121Z,49.70
2023-01-20T15:52:08.850Z,39.10
2023-01-20T15:54:42.396Z,54.80
2023-01-20T15:57:17.019Z,50.15
2023-01-20T15:59:50.381Z,46.20
2023-01-20T16:02:25.042Z,57.70
2023-01-20T16:04:57.812Z,50.03
2023-01-20T16:07:30.696Z,52.13
2023-01-20T16:10:04.851Z,43.33
2023-01-20T16:12:38.129Z,52.70
2023-01-20T16:15:17.380Z,43.00
2023-01-20T16:17:53.102Z,47.93
2023-01-20T16:20:27.693Z,47.45
2023-01-20T16:23:01.127Z,47.43
2023-01-20T16:25:35.521Z,49.15
2023-01-20T16:28:24.437Z,48.85
2023-01-20T16:30:58.201Z,47.20
2023-01-20T16:33:31.337Z,52.85
2023-01-20T16:36:04.010Z,47.05
2023-01-20T16:38:37.417Z,49.38
2023-01-20T16:41:23.012Z,54.13
2023-01-20T16:43:57.325Z,46.05
2023-01-20T16:46:33.132Z,52.23
2023-01-20T16:49:05.975Z,47.27
2023-01-20T16:51:39.107Z,53.15
2023-01-20T16:54:12.461Z,52.03
2023-01-20T16:56:45.190Z,42.55
2023-01-20T16:59:18.098Z,45.92
2023-01-20T17:01:51.541Z,43.13
2023-01-20T17:04:24.636Z,40.48
2023-01-20T17:06:57.544Z,40.48
2023-01-20T17:09:30.319Z,39.38
2023-01-20T17:14:37.155Z,47.67
2023-01-20T17:17:10.046Z,45.90
2023-01-20T17:19:43.096Z,49.80
2023-01-20T17:22:18.068Z,47.48
2023-01-20T17:24:50.940Z,46.98
2023-01-20T17:27:23.658Z,48.42
2023-01-20T17:29:56.605Z,42.53
2023-01-20T17:32:29.461Z,49.77
2023-01-20T17:35:02.616Z,50.60
2023-01-20T17:37:35.827Z,42.35
2023-01-20T17:40:10.924Z,41.20
2023-01-20T17:42:44.742Z,45.33
2023-01-20T17:45:17.524Z,43.10
2023-01-20T17:47:54.089Z,47.50
2023-01-20T17:50:28.717Z,54.18
2023-01-20T17:53:01.808Z,52.38
2023-01-20T17:55:34.776Z,46.80
2023-01-20T17:58:08.002Z,48.53
2023-01-20T18:00:41.747Z,48.42
2023-01-20T18:03:14.689Z,49.33
2023-01-20T18:05:47.570Z,50.65
2023-01-20T18:08:20.666Z,61.37
2023-01-20T18:10:53.542Z,53.68
2023-01-20T18:13:26.740Z,59.83
2023-01-20T18:16:07.751Z,48.87
2023-01-20T18:18:44.688Z,43.20
2023-01-20T18:21:21.256Z,47.73
2023-01-20T18:23:54.549Z,38.08
2023-01-20T18:29:08.836Z,41.27
2023-01-20T18:31:41.877Z,44.88
2023-01-20T18:34:18.741Z,48.03
2023-01-20T18:36:51.648Z,41.63
2023-01-20T18:39:27.391Z,46.77
2023-01-20T18:42:00.628Z,44.15
2023-01-20T18:44:33.751Z,42.35
2023-01-20T18:47:06.899Z,39.45
2023-01-20T18:49:40.091Z,37.17
2023-01-20T18:52:12.775Z,39.27
2023-01-20T18:54:46.041Z,36.85
2023-01-20T18:57:19.174Z,49.58
2023-01-20T18:59:51.928Z,43.38
2023-01-20T19:02:24.929Z,45.92
2023-01-20T19:04:57.743Z,37.78
2023-01-20T19:07:30.605Z,49.80
2023-01-20T19:10:03.823Z,42.33
2023-01-20T19:12:37.280Z,45.05
2023-01-20T19:15:10.865Z,37.78
2023-01-20T19:17:44.044Z,35.60
2023-01-20T19:20:17.872Z,36.87
2023-01-20T19:22:51.296Z,28.70
2023-01-20T19:25:26.143Z,35.52
2023-01-20T19:27:59.078Z,35.63
2023-01-20T19:30:32.031Z,40.08
2023-01-20T19:33:05.105Z,37.48
2023-01-20T19:35:38.731Z,33.63
2023-01-20T19:38:12.492Z,37.05
2023-01-20T19:40:45.684Z,40.00
2023-01-20T19:43:18.615Z,33.75
2023-01-20T19:45:51.421Z,37.13
2023-01-20T19:48:24.979Z,43.98
2023-01-20T19:50:59.810Z,38.48
2023-01-20T19:53:33.195Z,35.75
2023-01-20T19:56:08.228Z,43.17
2023-01-20T19:58:42.194Z,38.15
2023-01-20T20:01:21.307Z,45.88
2023-01-20T20:03:55.467Z,45.25
2023-01-20T20:06:32.824Z,37.93
2023-01-20T20:09:10.390Z,35.25
2023-01-20T20:11:44.357Z,49.45
2023-01-20T20:14:20.686Z,46.90
2023-01-20T20:16:53.810Z,41.95
2023-01-20T20:19:26.600Z,33.33
2023-01-20T20:21:59.349Z,37.98
2023-01-20T20:24:32.799Z,52.67
2023-01-20T20:27:05.876Z,45.25
2023-01-20T20:29:38.667Z,37.55
2023-01-20T20:32:12.063Z,36.60
2023-01-20T20:34:45.441Z,28.17
2023-01-20T20:37:18.497Z,30.20
2023-01-20T20:39:51.488Z,24.72
2023-01-20T20:42:24.608Z,29.47
2023-01-20T20:44:58.256Z,32.78
2023-01-20T20:47:32.679Z,27.00
2023-01-20T20:50:06.144Z,22.17
2023-01-20T20:52:39.168Z,19.25
2023-01-20T20:55:12.770Z,21.35
2023-01-20T20:57:46.072Z,23.62
2023-01-20T21:00:21.273Z,26.12
2023-01-20T21:02:54.300Z,22.45
2023-01-20T21:05:27.284Z,21.75
2023-01-20T21:08:00.104Z,16.25
2023-01-20T21:10:33.577Z,23.40
2023-01-20T21:13:07.985Z,15.10
2023-01-20T21:15:40.794Z,20.80
2023-01-20T21:18:14.222Z,26.05
2023-01-20T21:20:47.521Z,16.52
2023-01-20T21:23:20.154Z,15.65
2023-01-20T21:25:53.523Z,13.50
2023-01-20T21:28:26.740Z,23.42
2023-01-20T21:30:59.557Z,17.40
2023-01-20T21:33:32.735Z,23.38
2023-01-20T21:36:07.454Z,23.52
2023-01-20T21:38:43.161Z,22.87
2023-01-20T21:41:18.225Z,22.85
2023-01-20T21:44:09.284Z,24.82
2023-01-20T21:46:42.569Z,26.15
2023-01-20T21:49:33.682Z,34.88
2023-01-20T21:52:24.979Z,50.55
2023-01-20T21:54:58.336Z,233.93
2023-01-20T21:57:33.104Z,48.60
2023-01-20T22:02:44.935Z,21.15
2023-01-20T22:05:18.717Z,14.75
2023-01-20T22:07:51.549Z,19.57
2023-01-20T22:10:24.273Z,15.50
2023-01-20T22:12:58.110Z,21.02
2023-01-20T22:15:30.842Z,23.95
2023-01-20T22:18:03.780Z,20.30
2023-01-20T22:20:36.428Z,27.80
2023-01-20T22:23:09.402Z,29.27
2023-01-20T22:25:42.802Z,21.52
2023-01-20T22:28:15.695Z,25.85
2023-01-20T22:30:48.410Z,18.60
2023-01-20T22:33:21.544Z,19.40
2023-01-20T22:35:56.459Z,12.98
2023-01-20T22:38:30.779Z,24.98
2023-01-20T22:41:09.078Z,15.48
2023-01-20T22:43:43.793Z,18.82
2023-01-20T22:46:19.658Z,14.60
2023-01-20T22:48:52.836Z,18.55
2023-01-20T22:51:30.963Z,14.15
2023-01-20T22:54:04.355Z,14.15
2023-01-20T22:56:37.153Z,12.90
2023-01-20T22:59:11.694Z,18.50
2023-01-20T23:04:16.254Z,16.25
2023-01-20T23:06:49.222Z,9.95
2023-01-20T23:09:22.745Z,10.43
2023-01-20T23:11:55.661Z,10.93
2023-01-20T23:14:46.565Z,10.05
2023-01-20T23:17:19.312Z,13.35
2023-01-20T23:19:52.694Z,17.05
2023-01-20T23:22:26.292Z,21.25
2023-01-20T23:24:59.827Z,22.98
2023-01-20T23:27:32.764Z,15.63
2023-01-20T23:30:06.127Z,9.78
2023-01-20T23:32:39.682Z,14.38
2023-01-20T23:35:12.588Z,14.75
2023-01-20T23:37:46.144Z,15.30
2023-01-20T23:40:19.671Z,8.18
2023-01-20T23:42:53.197Z,6.17
2023-01-20T23:45:26.079Z,7.95
2023-01-20T23:47:59.045Z,13.13
2023-01-20T23:50:32.113Z,11.20
2023-01-20T23:53:05.221Z,8.75
2023-01-20T23:55:39.616Z,11.97
2023-01-20T23:58:12.978Z,13.28
